createdAt,value
2018-09-28T00:01:19.886Z,2.43
2018-09-28T00:03:49.142Z,2.50
2018-09-28T00:06:18.505Z,2.30
2018-09-28T00:08:47.737Z,2.33
2018-09-28T00:11:17.443Z,2.43
2018-09-28T00:13:46.772Z,2.30
2018-09-28T00:16:16.523Z,2.60
2018-09-28T00:18:45.407Z,2.40
2018-09-28T00:21:14.040Z,2.43
2018-09-28T00:23:43.609Z,2.27
2018-09-28T00:26:12.193Z,3.03
2018-09-28T00:28:40.824Z,2.40
2018-09-28T00:31:09.377Z,2.70
2018-09-28T00:33:38.180Z,2.40
2018-09-28T00:36:07.553Z,2.30
2018-09-28T00:38:36.476Z,2.43
2018-09-28T00:41:05.362Z,2.60
2018-09-28T00:43:34.206Z,2.83
2018-09-28T00:46:02.803Z,2.40
2018-09-28T00:48:31.733Z,2.30
2018-09-28T00:51:00.376Z,2.30
2018-09-28T00:53:29.030Z,2.30
2018-09-28T00:55:57.627Z,2.53
2018-09-28T00:58:26.415Z,2.20
2018-09-28T01:00:55.297Z,2.60
2018-09-28T01:03:23.962Z,2.43
2018-09-28T01:05:53.010Z,2.40
2018-09-28T01:08:22.934Z,2.40
2018-09-28T01:10:51.774Z,2.20
2018-09-28T01:13:23.072Z,2.50
2018-09-28T01:15:52.325Z,2.37
2018-09-28T01:18:21.817Z,2.00
2018-09-28T01:20:50.626Z,2.70
2018-09-28T01:23:19.697Z,2.13
2018-09-28T01:25:48.799Z,3.10
2018-09-28T01:28:17.834Z,2.90
2018-09-28T01:30:50.447Z,2.57
2018-09-28T01:33:20.411Z,3.00
2018-09-28T01:35:51.156Z,2.70
2018-09-28T01:38:22.945Z,3.77
2018-09-28T01:40:53.188Z,3.57
2018-09-28T01:43:23.281Z,2.63
2018-09-28T01:45:53.197Z,2.93
2018-09-28T01:48:22.763Z,3.67
2018-09-28T01:50:52.994Z,3.47
2018-09-28T01:53:22.395Z,3.10
2018-09-28T01:55:52.489Z,3.50
2018-09-28T01:58:22.272Z,3.47
2018-09-28T02:00:51.197Z,3.20
2018-09-28T02:03:19.708Z,3.93
2018-09-28T02:05:51.201Z,3.60
2018-09-28T02:08:21.733Z,3.70
2018-09-28T02:10:52.290Z,3.50
2018-09-28T02:13:21.483Z,3.60
2018-09-28T02:15:50.126Z,4.13
2018-09-28T02:18:18.999Z,5.37
2018-09-28T02:20:47.670Z,5.00
2018-09-28T02:23:16.533Z,5.60
2018-09-28T02:25:45.688Z,6.03
2018-09-28T02:28:14.279Z,5.80
2018-09-28T02:30:43.424Z,5.90
2018-09-28T02:33:12.436Z,6.07
2018-09-28T02:35:41.005Z,5.47
2018-09-28T02:38:09.603Z,6.43
2018-09-28T02:40:38.524Z,6.87
2018-09-28T02:43:07.263Z,6.33
2018-09-28T02:45:35.933Z,7.63
2018-09-28T02:48:04.556Z,7.50
2018-09-28T02:50:33.334Z,6.63
2018-09-28T02:53:02.434Z,7.30
2018-09-28T02:55:31.444Z,7.87
2018-09-28T02:58:00.208Z,6.73
2018-09-28T03:00:28.790Z,6.77
2018-09-28T03:02:58.437Z,6.77
2018-09-28T03:05:26.995Z,5.80
2018-09-28T03:07:55.597Z,5.40
2018-09-28T03:10:24.598Z,6.60
2018-09-28T03:12:53.212Z,7.67
2018-09-28T03:15:22.005Z,7.77
2018-09-28T03:17:50.906Z,7.93
2018-09-28T03:20:19.482Z,8.20
2018-09-28T03:22:48.106Z,7.80
2018-09-28T03:25:16.758Z,7.70
2018-09-28T03:27:45.397Z,8.63
2018-09-28T03:30:13.965Z,9.13
2018-09-28T03:32:42.619Z,8.23
2018-09-28T03:35:11.540Z,7.60
2018-09-28T03:37:40.490Z,8.50
2018-09-28T03:40:09.070Z,7.93
2018-09-28T03:42:37.792Z,8.13
2018-09-28T03:45:06.420Z,7.73
2018-09-28T03:47:35.631Z,9.13
2018-09-28T03:50:04.997Z,8.63
2018-09-28T03:52:33.631Z,8.87
2018-09-28T03:55:02.216Z,8.77
2018-09-28T03:57:30.945Z,8.80
2018-09-28T03:59:59.704Z,9.30
2018-09-28T04:02:28.767Z,9.63
2018-09-28T04:04:57.455Z,9.20
2018-09-28T04:07:26.398Z,9.27
2018-09-28T04:09:55.349Z,9.60
2018-09-28T04:12:25.173Z,10.00
2018-09-28T04:14:54.297Z,9.07
2018-09-28T04:17:23.009Z,10.80
2018-09-28T04:19:52.688Z,10.00
2018-09-28T04:22:21.467Z,11.27
2018-09-28T04:24:50.123Z,12.67
2018-09-28T04:27:18.713Z,14.03
2018-09-28T04:29:47.605Z,14.00
2018-09-28T04:32:16.169Z,14.70
2018-09-28T04:34:44.890Z,15.17
2018-09-28T04:37:13.555Z,15.70
2018-09-28T04:39:48.760Z,15.60
2018-09-28T04:42:17.761Z,17.33
2018-09-28T04:44:46.312Z,16.87
2018-09-28T04:47:15.624Z,16.43
2018-09-28T04:49:44.165Z,15.63
2018-09-28T04:52:12.988Z,15.53
2018-09-28T04:54:42.628Z,14.90
2018-09-28T04:57:11.674Z,16.13
2018-09-28T04:59:41.889Z,15.53
2018-09-28T05:02:10.541Z,15.27
2018-09-28T05:04:41.431Z,15.83
2018-09-28T05:07:10.377Z,15.77
2018-09-28T05:09:40.032Z,16.57
2018-09-28T05:12:09.113Z,15.13
2018-09-28T05:14:38.591Z,17.53
2018-09-28T05:17:07.899Z,14.27
2018-09-28T05:19:36.679Z,17.70
2018-09-28T05:22:06.285Z,15.70
2018-09-28T05:24:34.871Z,17.70
2018-09-28T05:27:03.577Z,16.43
2018-09-28T05:29:32.812Z,15.47
2018-09-28T05:32:01.543Z,16.67
2018-09-28T05:34:30.197Z,16.33
2018-09-28T05:36:58.734Z,15.67
2018-09-28T05:39:28.107Z,13.57
2018-09-28T05:41:57.403Z,14.17
2018-09-28T05:44:26.071Z,14.60
2018-09-28T05:46:55.098Z,14.13
2018-09-28T05:49:23.621Z,14.63
2018-09-28T05:51:53.101Z,15.50
2018-09-28T05:54:21.718Z,16.80
2018-09-28T05:56:50.298Z,15.60
2018-09-28T05:59:24.374Z,15.90
2018-09-28T06:01:58.629Z,16.23
2018-09-28T06:04:32.661Z,15.93
2018-09-28T06:07:01.244Z,16.10
2018-09-28T06:09:29.859Z,16.30
2018-09-28T06:11:58.539Z,15.53
2018-09-28T06:14:27.359Z,15.07
2018-09-28T06:16:56.446Z,15.93
2018-09-28T06:19:25.428Z,16.90
2018-09-28T06:21:55.043Z,18.43
2018-09-28T06:24:23.765Z,17.10
2018-09-28T06:26:52.540Z,17.50
2018-09-28T06:29:21.415Z,18.13
2018-09-28T06:31:50.006Z,17.67
2018-09-28T06:34:18.703Z,18.87
2018-09-28T06:36:47.782Z,16.93
2018-09-28T06:39:16.334Z,15.30
2018-09-28T06:41:44.935Z,13.90
2018-09-28T06:44:13.465Z,13.10
2018-09-28T06:46:42.243Z,16.63
2018-09-28T06:49:10.793Z,16.67
2018-09-28T06:51:39.555Z,17.70
2018-09-28T06:54:08.079Z,18.70
2018-09-28T06:56:36.945Z,18.27
2018-09-28T06:59:05.751Z,19.13
2018-09-28T07:01:34.457Z,19.13
2018-09-28T07:04:03.112Z,18.07
2018-09-28T07:06:31.807Z,20.10
2018-09-28T07:09:00.375Z,21.17
2018-09-28T07:11:29.432Z,22.50
2018-09-28T07:13:58.589Z,22.73
2018-09-28T07:16:27.667Z,24.27
2018-09-28T07:18:56.191Z,23.63
2018-09-28T07:21:24.974Z,26.77
2018-09-28T07:23:53.593Z,27.53
2018-09-28T07:26:22.179Z,27.47
2018-09-28T07:28:50.731Z,27.83
2018-09-28T07:31:19.293Z,29.37
2018-09-28T07:33:48.014Z,30.43
2018-09-28T07:36:16.616Z,30.50
2018-09-28T07:38:45.434Z,28.57
2018-09-28T07:41:14.882Z,29.20
2018-09-28T07:43:43.461Z,29.87
2018-09-28T07:46:12.229Z,31.00
2018-09-28T07:48:40.926Z,29.13
2018-09-28T07:51:09.664Z,29.10
2018-09-28T07:53:38.273Z,29.53
2018-09-28T07:56:06.934Z,30.47
2018-09-28T07:58:35.468Z,29.90
2018-09-28T08:01:04.049Z,27.70
2018-09-28T08:03:32.657Z,29.80
2018-09-28T08:06:01.693Z,30.93
2018-09-28T08:08:30.392Z,30.17
2018-09-28T08:10:59.414Z,31.43
2018-09-28T08:13:28.008Z,30.17
2018-09-28T08:15:56.663Z,31.03
2018-09-28T08:18:25.276Z,30.40
2018-09-28T08:20:54.218Z,31.13
2018-09-28T08:23:23.038Z,29.47
2018-09-28T08:25:51.580Z,30.50
2018-09-28T08:28:20.218Z,32.67
2018-09-28T08:30:48.757Z,33.23
2018-09-28T08:33:17.392Z,30.97
2018-09-28T08:35:46.338Z,32.63
2018-09-28T08:38:15.068Z,34.17
2018-09-28T08:40:44.044Z,33.73
2018-09-28T08:43:12.660Z,31.57
2018-09-28T08:45:41.225Z,30.93
2018-09-28T08:48:09.788Z,30.60
2018-09-28T08:50:38.478Z,30.17
2018-09-28T08:53:07.717Z,30.47
2018-09-28T08:55:36.280Z,30.27
2018-09-28T08:58:04.877Z,29.30
2018-09-28T09:00:33.449Z,30.40
2018-09-28T09:03:02.326Z,33.77
2018-09-28T09:05:30.991Z,32.33
2018-09-28T09:07:59.617Z,33.27
2018-09-28T09:10:29.655Z,31.23
2018-09-28T09:12:58.409Z,33.43
2018-09-28T09:15:27.233Z,28.70
2018-09-28T09:17:56.000Z,29.53
2018-09-28T09:20:24.753Z,28.50
2018-09-28T09:22:53.591Z,26.83
2018-09-28T09:25:22.548Z,25.87
2018-09-28T09:27:51.266Z,24.83
2018-09-28T09:30:20.234Z,23.00
2018-09-28T09:32:49.179Z,21.57
2018-09-28T09:35:17.785Z,19.60
2018-09-28T09:37:46.747Z,17.37
2018-09-28T09:40:15.712Z,17.90
2018-09-28T09:42:44.258Z,15.30
2018-09-28T09:45:13.214Z,15.80
2018-09-28T09:47:41.917Z,14.73
2018-09-28T09:50:10.479Z,15.20
2018-09-28T09:52:39.599Z,12.37
2018-09-28T09:55:08.901Z,10.77
2018-09-28T09:57:37.535Z,10.73
2018-09-28T10:00:06.589Z,10.57
2018-09-28T10:02:40.667Z,10.73
2018-09-28T10:05:09.275Z,9.83
2018-09-28T10:07:38.344Z,9.20
2018-09-28T10:10:07.500Z,10.20
2018-09-28T10:12:36.642Z,9.90
2018-09-28T10:15:06.019Z,12.13
2018-09-28T10:17:34.687Z,12.10
2018-09-28T10:20:03.457Z,12.87
2018-09-28T10:22:32.168Z,12.70
2018-09-28T10:25:00.772Z,13.70
2018-09-28T10:27:29.525Z,14.43
2018-09-28T10:29:59.020Z,14.67
2018-09-28T10:32:27.628Z,14.70
2018-09-28T10:34:57.130Z,13.97
2018-09-28T10:37:25.935Z,14.97
2018-09-28T10:39:54.925Z,14.90
2018-09-28T10:42:23.512Z,13.90
2018-09-28T10:44:52.200Z,15.50
2018-09-28T10:47:20.745Z,14.47
2018-09-28T10:49:50.912Z,15.27
2018-09-28T10:52:20.315Z,15.87
2018-09-28T10:54:49.654Z,13.93
2018-09-28T10:57:18.953Z,13.97
2018-09-28T10:59:47.510Z,13.07
2018-09-28T11:02:16.077Z,11.47
2018-09-28T11:04:45.194Z,10.47
2018-09-28T11:07:13.786Z,9.67
2018-09-28T11:09:42.524Z,8.80
2018-09-28T11:12:11.292Z,8.90
2018-09-28T11:14:40.573Z,9.03
2018-09-28T11:17:09.245Z,6.60
2018-09-28T11:19:38.455Z,6.47
2018-09-28T11:22:07.319Z,6.97
2018-09-28T11:24:36.317Z,6.33
2018-09-28T11:27:04.957Z,6.20
2018-09-28T11:29:34.280Z,6.37
2018-09-28T11:32:04.046Z,5.57
2018-09-28T11:34:33.219Z,5.60
2018-09-28T11:37:02.274Z,5.70
2018-09-28T11:39:32.291Z,5.80
2018-09-28T11:42:01.157Z,5.17
2018-09-28T11:44:30.577Z,5.90
2018-09-28T11:46:59.192Z,5.20
2018-09-28T11:49:28.288Z,5.20
2018-09-28T11:51:57.008Z,4.97
2018-09-28T11:54:26.275Z,4.60
2018-09-28T11:56:55.411Z,4.40
2018-09-28T11:59:24.308Z,4.10
2018-09-28T12:01:53.106Z,4.20
2018-09-28T12:04:22.629Z,4.60
2018-09-28T12:06:51.788Z,4.03
2018-09-28T12:09:20.983Z,4.63
2018-09-28T12:11:49.611Z,3.97
2018-09-28T12:14:18.241Z,3.77
2018-09-28T12:16:47.246Z,4.27
2018-09-28T12:19:15.913Z,4.00
2018-09-28T12:21:44.640Z,3.50
2018-09-28T12:24:13.289Z,3.40
2018-09-28T12:26:41.813Z,3.47
2018-09-28T12:29:10.414Z,3.33
2018-09-28T12:31:39.093Z,3.67
2018-09-28T12:34:07.664Z,3.10
2018-09-28T12:36:36.284Z,3.70
2018-09-28T12:39:06.409Z,3.73
2018-09-28T12:41:35.059Z,3.60
2018-09-28T12:44:03.897Z,3.90
2018-09-28T12:46:32.497Z,3.93
2018-09-28T12:49:01.807Z,3.63
2018-09-28T12:51:30.428Z,3.67
2018-09-28T12:53:59.313Z,4.10
2018-09-28T12:56:28.392Z,5.00
2018-09-28T12:58:56.942Z,4.43
2018-09-28T13:01:25.618Z,4.23
2018-09-28T13:03:55.015Z,4.00
2018-09-28T13:06:23.666Z,3.90
2018-09-28T13:08:52.284Z,4.03
2018-09-28T13:11:20.830Z,3.90
2018-09-28T13:13:49.460Z,2.93
2018-09-28T13:16:18.009Z,3.33
2018-09-28T13:18:47.406Z,3.57
2018-09-28T13:21:16.050Z,4.03
2018-09-28T13:23:44.892Z,3.10
2018-09-28T13:26:13.577Z,3.07
2018-09-28T13:28:42.146Z,3.60
2018-09-28T13:31:11.209Z,3.80
2018-09-28T13:33:40.045Z,3.33
2018-09-28T13:36:09.060Z,3.90
2018-09-28T13:38:38.664Z,3.40
2018-09-28T13:41:07.227Z,3.60
2018-09-28T13:43:35.824Z,3.90
2018-09-28T13:46:04.708Z,3.40
2018-09-28T13:48:33.444Z,3.43
2018-09-28T13:51:02.262Z,3.57
2018-09-28T13:53:31.024Z,3.10
2018-09-28T13:55:59.606Z,3.10
2018-09-28T13:58:28.180Z,3.20
2018-09-28T14:00:57.045Z,3.20
2018-09-28T14:03:26.507Z,3.67
2018-09-28T14:05:55.235Z,2.90
2018-09-28T14:08:24.123Z,3.03
2018-09-28T14:10:53.025Z,3.63
2018-09-28T14:13:21.579Z,3.20
2018-09-28T14:15:50.566Z,3.53
2018-09-28T14:18:19.857Z,3.30
2018-09-28T14:20:48.748Z,3.20
2018-09-28T14:23:17.635Z,3.30
2018-09-28T14:25:46.162Z,3.20
2018-09-28T14:28:14.719Z,3.60
2018-09-28T14:30:43.487Z,3.53
2018-09-28T14:33:12.384Z,3.10
2018-09-28T14:35:41.393Z,3.40
2018-09-28T14:38:10.131Z,3.50
2018-09-28T14:40:38.937Z,3.37
2018-09-28T14:43:07.754Z,3.73
2018-09-28T14:45:37.870Z,3.20
2018-09-28T14:48:08.726Z,3.10
2018-09-28T14:50:39.406Z,3.40
2018-09-28T14:53:09.636Z,3.43
2018-09-28T14:55:40.138Z,3.53
2018-09-28T14:58:10.375Z,3.23
2018-09-28T15:00:41.176Z,3.73
2018-09-28T15:03:11.139Z,3.60
2018-09-28T15:05:41.102Z,3.97
2018-09-28T15:08:11.705Z,3.80
2018-09-28T15:10:42.814Z,3.57
2018-09-28T15:13:13.203Z,3.03
2018-09-28T15:15:44.143Z,3.47
2018-09-28T15:18:14.349Z,3.07
2018-09-28T15:20:44.781Z,3.27
2018-09-28T15:23:15.931Z,2.90
2018-09-28T15:25:46.573Z,2.97
2018-09-28T15:28:16.507Z,3.07
2018-09-28T15:30:46.817Z,3.37
2018-09-28T15:33:16.542Z,2.73
2018-09-28T15:35:47.078Z,2.30
2018-09-28T15:38:16.356Z,3.10
2018-09-28T15:40:47.096Z,4.07
2018-09-28T15:43:15.663Z,3.30
2018-09-28T15:45:44.297Z,3.63
2018-09-28T15:48:14.183Z,3.33
2018-09-28T15:50:42.904Z,3.00
2018-09-28T15:53:11.797Z,2.40
2018-09-28T15:55:40.760Z,3.03
2018-09-28T15:58:09.439Z,1.83
2018-09-28T16:00:38.455Z,1.90
2018-09-28T16:03:08.706Z,3.20
2018-09-28T16:05:38.490Z,2.10
2018-09-28T16:08:08.600Z,3.13
2018-09-28T16:10:38.516Z,1.97
2018-09-28T16:13:09.131Z,1.70
2018-09-28T16:15:39.976Z,2.53
2018-09-28T16:18:10.350Z,1.80
2018-09-28T16:20:40.510Z,2.03
2018-09-28T16:23:10.766Z,2.50
2018-09-28T16:25:41.391Z,1.90
2018-09-28T16:28:10.515Z,1.97
2018-09-28T16:30:41.711Z,1.63
2018-09-28T16:33:11.241Z,2.40
2018-09-28T16:35:41.659Z,2.43
2018-09-28T16:38:11.609Z,2.13
2018-09-28T16:40:40.961Z,1.90
2018-09-28T16:43:10.241Z,1.60
2018-09-28T16:45:39.954Z,1.57
2018-09-28T16:48:08.560Z,1.70
2018-09-28T16:50:37.231Z,1.37
2018-09-28T16:53:06.033Z,1.73
2018-09-28T16:55:34.941Z,1.10
2018-09-28T16:58:03.536Z,1.67
2018-09-28T17:00:32.865Z,1.63
2018-09-28T17:03:01.681Z,2.60
2018-09-28T17:05:31.398Z,1.53
2018-09-28T17:08:00.063Z,1.43
2018-09-28T17:10:29.372Z,1.50
2018-09-28T17:12:58.042Z,1.57
2018-09-28T17:15:27.876Z,1.33
2018-09-28T17:17:56.781Z,1.67
2018-09-28T17:20:26.402Z,1.40
2018-09-28T17:22:55.046Z,1.90
2018-09-28T17:25:25.609Z,1.50
2018-09-28T17:27:54.720Z,1.90
2018-09-28T17:30:23.579Z,1.37
2018-09-28T17:32:52.284Z,1.60
2018-09-28T17:35:21.012Z,3.97
2018-09-28T17:37:49.706Z,2.47
2018-09-28T17:40:18.601Z,2.10
2018-09-28T17:42:47.215Z,2.77
2018-09-28T17:45:16.141Z,1.73
2018-09-28T17:47:44.947Z,2.20
2018-09-28T17:50:13.564Z,1.77
2018-09-28T17:52:42.548Z,1.93
2018-09-28T17:55:11.436Z,3.00
2018-09-28T17:57:40.668Z,1.47
2018-09-28T18:00:10.753Z,1.53
2018-09-28T18:02:39.557Z,1.47
2018-09-28T18:05:08.564Z,1.53
2018-09-28T18:07:37.208Z,1.33
2018-09-28T18:10:05.978Z,2.10
2018-09-28T18:12:34.706Z,1.83
2018-09-28T18:15:03.531Z,2.27
2018-09-28T18:17:32.196Z,2.00
2018-09-28T18:20:00.864Z,1.90
2018-09-28T18:22:30.643Z,1.80
2018-09-28T18:25:00.272Z,1.40
2018-09-28T18:27:29.163Z,1.50
2018-09-28T18:29:58.495Z,1.67
2018-09-28T18:32:28.245Z,1.80
2018-09-28T18:34:57.174Z,1.63
2018-09-28T18:37:25.817Z,2.27
2018-09-28T18:39:55.233Z,1.50
2018-09-28T18:42:23.982Z,1.60
2018-09-28T18:44:53.156Z,2.10
2018-09-28T18:47:22.014Z,1.33
2018-09-28T18:49:51.166Z,1.77
2018-09-28T18:52:20.001Z,1.43
2018-09-28T18:54:48.713Z,1.37
2018-09-28T18:57:19.402Z,1.80
2018-09-28T18:59:48.399Z,2.10
2018-09-28T19:02:20.707Z,1.50
2018-09-28T19:04:50.934Z,1.67
2018-09-28T19:07:21.303Z,1.63
2018-09-28T19:09:52.140Z,1.20
2018-09-28T19:12:23.068Z,1.93
2018-09-28T19:14:53.511Z,1.60
2018-09-28T19:17:22.760Z,1.80
2018-09-28T19:19:53.529Z,1.50
2018-09-28T19:22:24.294Z,2.00
2018-09-28T19:24:54.967Z,1.43
2018-09-28T19:27:25.157Z,1.50
2018-09-28T19:29:55.605Z,1.50
2018-09-28T19:32:27.560Z,1.53
2018-09-28T19:34:58.710Z,1.30
2018-09-28T19:37:29.513Z,1.50
2018-09-28T19:40:00.040Z,1.37
2018-09-28T19:42:30.363Z,1.80
2018-09-28T19:45:00.699Z,1.70
2018-09-28T19:47:29.227Z,1.73
2018-09-28T19:49:59.604Z,1.70
2018-09-28T19:52:30.076Z,1.73
2018-09-28T19:54:59.551Z,1.50
2018-09-28T19:57:30.809Z,1.87
2018-09-28T20:00:01.350Z,1.90
2018-09-28T20:02:33.124Z,2.00
2018-09-28T20:05:02.996Z,1.77
2018-09-28T20:07:33.743Z,1.33
2018-09-28T20:10:03.404Z,1.30
2018-09-28T20:12:33.665Z,1.80
2018-09-28T20:15:03.179Z,1.13
2018-09-28T20:17:33.294Z,2.60
2018-09-28T20:20:02.565Z,1.67
2018-09-28T20:22:32.497Z,1.37
2018-09-28T20:25:02.634Z,1.73
2018-09-28T20:27:33.608Z,1.87
2018-09-28T20:30:04.461Z,1.13
2018-09-28T20:32:34.944Z,1.30
2018-09-28T20:35:06.109Z,1.47
2018-09-28T20:37:37.211Z,1.67
2018-09-28T20:40:07.630Z,1.57
2018-09-28T20:42:37.565Z,1.00
2018-09-28T20:45:07.745Z,1.40
2018-09-28T20:47:38.976Z,1.20
2018-09-28T20:50:08.795Z,1.40
2018-09-28T20:52:39.313Z,2.10
2018-09-28T20:55:10.411Z,1.27
2018-09-28T20:57:40.297Z,1.57
2018-09-28T21:00:10.417Z,1.43
2018-09-28T21:02:40.900Z,1.70
2018-09-28T21:05:10.955Z,1.80
2018-09-28T21:07:42.616Z,1.40
2018-09-28T21:10:13.215Z,1.43
2018-09-28T21:12:43.714Z,2.03
2018-09-28T21:15:13.981Z,1.57
2018-09-28T21:17:44.182Z,1.60
2018-09-28T21:20:14.416Z,1.80
2018-09-28T21:22:44.493Z,1.53
2018-09-28T21:25:15.255Z,1.70
2018-09-28T21:27:45.738Z,1.80
2018-09-28T21:30:14.333Z,1.40
2018-09-28T21:32:45.075Z,1.90
2018-09-28T21:35:15.894Z,0.83
2018-09-28T21:37:46.800Z,1.20
2018-09-28T21:40:16.617Z,1.50
2018-09-28T21:42:46.120Z,1.70
2018-09-28T21:45:15.141Z,1.57
2018-09-28T21:47:44.626Z,1.43
2018-09-28T21:50:13.691Z,1.63
2018-09-28T21:52:43.253Z,1.40
2018-09-28T21:55:11.904Z,1.90
2018-09-28T21:57:40.869Z,1.43
2018-09-28T22:00:09.645Z,1.33
2018-09-28T22:02:38.498Z,1.47
2018-09-28T22:05:07.263Z,1.70
2018-09-28T22:07:36.805Z,1.60
2018-09-28T22:10:06.030Z,1.20
2018-09-28T22:12:35.942Z,1.43
2018-09-28T22:15:04.771Z,1.83
2018-09-28T22:17:34.361Z,1.73
2018-09-28T22:20:06.081Z,1.40
2018-09-28T22:22:34.730Z,1.77
2018-09-28T22:25:03.502Z,1.57
2018-09-28T22:27:33.041Z,1.70
2018-09-28T22:30:02.750Z,2.33
2018-09-28T22:32:32.321Z,1.70
2018-09-28T22:35:01.724Z,1.63
2018-09-28T22:37:30.801Z,1.50
2018-09-28T22:39:59.837Z,1.50
2018-09-28T22:42:29.212Z,1.60
2018-09-28T22:45:00.074Z,1.97
2018-09-28T22:47:29.065Z,2.37
2018-09-28T22:49:58.508Z,1.50
2018-09-28T22:52:27.229Z,2.50
2018-09-28T22:54:56.026Z,1.90
2018-09-28T22:57:26.066Z,1.50
2018-09-28T22:59:55.627Z,2.00
2018-09-28T23:02:25.475Z,2.23
2018-09-28T23:04:55.203Z,1.53
2018-09-28T23:07:24.833Z,1.80
2018-09-28T23:09:54.552Z,1.87
2018-09-28T23:12:23.762Z,1.63
2018-09-28T23:14:52.551Z,1.57
2018-09-28T23:17:21.823Z,1.50
2018-09-28T23:19:50.558Z,1.73
2018-09-28T23:22:20.314Z,1.63
2018-09-28T23:24:49.104Z,1.70
2018-09-28T23:27:17.896Z,2.03
2018-09-28T23:29:46.767Z,1.40
2018-09-28T23:32:16.038Z,1.70
2018-09-28T23:34:45.031Z,1.80
2018-09-28T23:37:14.373Z,2.57
2018-09-28T23:39:44.114Z,2.03
2018-09-28T23:42:13.267Z,1.70
2018-09-28T23:44:42.024Z,1.90
2018-09-28T23:47:11.470Z,1.67
2018-09-28T23:49:41.705Z,1.90
2018-09-28T23:52:11.566Z,1.47
2018-09-28T23:54:40.817Z,1.80
2018-09-28T23:57:10.020Z,2.43
2018-09-28T23:59:39.227Z,1.53
